首页
METAR-TAF:

METAR-TAF

机场 :

罗德里格斯岛, 毛里求斯

纬度: 19-41S, 经度: 063-25E, 海拔: 58米

当前天气观测

该预报发布于15小时和17分钟前的12:00 UTC
风速20节,风向
温度 25°C
湿度 69%
气压 1020 hPa
能见度10公里或以上
多云层高于1700英尺
散云层高于5000英尺
多云层高于25000英尺

METAR: FIMR 131200Z 10020KT 9999 BKN017 SCT050 BKN250 25/19 Q1020

时间: 07:17 (03:17 UTC)

预报

该预报发布于3小时和57分钟前的23:20 UTC
预报有效从14日的 00点(UTC)到 14日的 18点(UTC)
风速22节,风向,有时为33节阵风
能见度10公里或以上
散云层高于1800英尺
几率 30% :
短暂存在
从 14日的 12点(UTC)到 14日的 18点(UTC)
能見度: 7000
少量云层高于1000英尺
多云层高于1600英尺
小阵雨,

TAF: FIMR 132320Z 1400/1418 09022G33KT 9999 SCT018 PROB30 TEMPO 1412/1418 7000 -SHRA FEW010 BKN016

超过4000个机场的气象观测和天气预报(METAR&TAF报告)。

可查询的气象台以黄色和红色小点在地图上表示。

将鼠标移到小点上方,可查看气象台名称。

然后点击查看天气观测和预报。

如需切换地图:点击带黑十字的绿色按钮放大地图;点击带横线的绿色按钮缩小地图;或者点击绿色箭头查看邻近地区的地图。


METAR-TAF: